GLO1106 SBGR-SBVT
Flight info
| Callsign | GLO1106 |
|---|---|
| Flight time | 1h 3m |
| Altitude | 37000 |
| Route | UREMI UZ42 IMDAB DCT SEGLI DCT TODET |
| Aircraft | B737/M-SDE2E3FGHIRWXY/LB1 |
Departure
| Time | 2026-04-17 00:01 |
|---|---|
| Airport | São Paulo/Guarulhos–Governor André Franco Montoro International Airport (SBGR) |
Arrival
| Time | 2026-04-17 01:05 |
|---|---|
| Airport | Eurico de Aguiar Salles International Airport (SBVT) |
| Time | Latitude | Longitude | Altitude | Speed | Heading |
|---|---|---|---|---|---|
| 2026-04-16 23:27 | -23.42769 | -46.48551 | 2460 ft | 0 kts | 275° |
| 2026-04-16 23:51 | -23.42769 | -46.48544 | 2460 ft | 4 kts | 275° |
| 2026-04-16 23:51 | -23.42772 | -46.48516 | 2460 ft | 4 kts | 276° |
| 2026-04-16 23:51 | -23.42774 | -46.48488 | 2460 ft | 4 kts | 256° |
| 2026-04-16 23:51 | -23.42762 | -46.48464 | 2463 ft | 4 kts | 218° |
| 2026-04-16 23:52 | -23.42747 | -46.48455 | 2460 ft | 1 kts | 203° |
| 2026-04-16 23:52 | -23.42745 | -46.48454 | 2460 ft | 0 kts | 203° |
| 2026-04-16 23:57 | -23.42746 | -46.48454 | 2460 ft | 0 kts | 202° |
| 2026-04-16 23:57 | -23.42764 | -46.48453 | 2462 ft | 6 kts | 179° |
| 2026-04-16 23:57 | -23.42831 | -46.48452 | 2460 ft | 12 kts | 179° |
| 2026-04-16 23:57 | -23.42912 | -46.48451 | 2460 ft | 11 kts | 180° |
| 2026-04-16 23:58 | -23.42990 | -46.48452 | 2462 ft | 11 kts | 180° |
| 2026-04-16 23:58 | -23.43065 | -46.48442 | 2461 ft | 11 kts | 163° |
| 2026-04-16 23:58 | -23.43136 | -46.48419 | 2461 ft | 10 kts | 164° |
| 2026-04-16 23:58 | -23.43205 | -46.48397 | 2462 ft | 10 kts | 164° |
| 2026-04-16 23:59 | -23.43268 | -46.48377 | 2462 ft | 7 kts | 163° |
| 2026-04-16 23:59 | -23.43293 | -46.48369 | 2460 ft | 0 kts | 163° |
| 2026-04-17 00:00 | -23.43307 | -46.48364 | 2466 ft | 6 kts | 163° |
| 2026-04-17 00:00 | -23.43372 | -46.48343 | 2462 ft | 14 kts | 163° |
| 2026-04-17 00:00 | -23.43414 | -46.48261 | 2459 ft | 16 kts | 75° |
| 2026-04-17 00:00 | -23.43357 | -46.48067 | 2461 ft | 46 kts | 73° |
| 2026-04-17 00:01 | -23.43199 | -46.47481 | 2457 ft | 114 kts | 73° |
| 2026-04-17 00:01 | -23.42926 | -46.46461 | 2509 ft | 161 kts | 75° |
| 2026-04-17 00:01 | -23.42612 | -46.45240 | 2977 ft | 168 kts | 76° |
| 2026-04-17 00:01 | -23.42307 | -46.44022 | 3639 ft | 166 kts | 73° |
| 2026-04-17 00:02 | -23.41952 | -46.42823 | 4305 ft | 168 kts | 70° |
| 2026-04-17 00:02 | -23.41553 | -46.41522 | 4639 ft | 195 kts | 70° |
| 2026-04-17 00:02 | -23.41098 | -46.40020 | 4887 ft | 222 kts | 71° |
| 2026-04-17 00:02 | -23.40591 | -46.38334 | 5128 ft | 246 kts | 71° |
| 2026-04-17 00:03 | -23.40213 | -46.36438 | 5432 ft | 272 kts | 90° |
| 2026-04-17 00:03 | -23.40433 | -46.34363 | 6112 ft | 282 kts | 107° |
| 2026-04-17 00:03 | -23.41124 | -46.32345 | 6955 ft | 286 kts | 110° |
| 2026-04-17 00:03 | -23.41434 | -46.30220 | 7855 ft | 287 kts | 89° |
| 2026-04-17 00:04 | -23.41362 | -46.28041 | 8799 ft | 290 kts | 87° |
| 2026-04-17 00:04 | -23.41260 | -46.25833 | 9722 ft | 294 kts | 87° |
| 2026-04-17 00:04 | -23.41159 | -46.23589 | 10510 ft | 303 kts | 88° |
| 2026-04-17 00:04 | -23.41062 | -46.21208 | 10956 ft | 323 kts | 88° |
| 2026-04-17 00:05 | -23.41001 | -46.19575 | 11414 ft | 329 kts | 88° |
| 2026-04-17 00:05 | -23.40886 | -46.16211 | 12538 ft | 335 kts | 89° |
| 2026-04-17 00:05 | -23.40832 | -46.14524 | 13094 ft | 339 kts | 89° |
| 2026-04-17 00:05 | -23.40752 | -46.11939 | 13901 ft | 344 kts | 89° |
| 2026-04-17 00:06 | -23.40674 | -46.09312 | 14616 ft | 350 kts | 89° |
| 2026-04-17 00:06 | -23.40595 | -46.06642 | 15343 ft | 356 kts | 89° |
| 2026-04-17 00:06 | -23.40515 | -46.03932 | 16098 ft | 361 kts | 88° |
| 2026-04-17 00:06 | -23.40435 | -46.01173 | 16831 ft | 367 kts | 88° |
| 2026-04-17 00:07 | -23.40352 | -45.98373 | 17562 ft | 373 kts | 88° |
| 2026-04-17 00:07 | -23.40268 | -45.95530 | 18287 ft | 378 kts | 88° |
| 2026-04-17 00:07 | -23.40183 | -45.92648 | 18951 ft | 384 kts | 88° |
| 2026-04-17 00:07 | -23.40095 | -45.89726 | 19594 ft | 388 kts | 88° |
| 2026-04-17 00:08 | -23.40007 | -45.86775 | 20238 ft | 393 kts | 88° |
| 2026-04-17 00:08 | -23.39917 | -45.83784 | 20883 ft | 398 kts | 88° |
| 2026-04-17 00:08 | -23.39825 | -45.80758 | 21521 ft | 402 kts | 88° |
| 2026-04-17 00:08 | -23.39731 | -45.77692 | 22137 ft | 408 kts | 88° |
| 2026-04-17 00:09 | -23.39636 | -45.74589 | 22722 ft | 413 kts | 88° |
| 2026-04-17 00:09 | -23.39538 | -45.71439 | 23334 ft | 418 kts | 88° |
| 2026-04-17 00:09 | -23.39439 | -45.68264 | 23884 ft | 423 kts | 88° |
| 2026-04-17 00:09 | -23.39338 | -45.65047 | 24392 ft | 427 kts | 88° |
| 2026-04-17 00:10 | -23.39236 | -45.61804 | 24914 ft | 431 kts | 88° |
| 2026-04-17 00:10 | -23.39132 | -45.58532 | 25425 ft | 435 kts | 88° |
| 2026-04-17 00:10 | -23.39027 | -45.55226 | 25937 ft | 439 kts | 88° |
| 2026-04-17 00:10 | -23.38899 | -45.51890 | 26434 ft | 443 kts | 85° |
| 2026-04-17 00:11 | -23.38433 | -45.48559 | 26915 ft | 447 kts | 77° |
| 2026-04-17 00:11 | -23.37720 | -45.45257 | 27427 ft | 450 kts | 75° |
| 2026-04-17 00:11 | -23.36957 | -45.41933 | 27925 ft | 454 kts | 75° |
| 2026-04-17 00:11 | -23.36198 | -45.38581 | 28385 ft | 459 kts | 75° |
| 2026-04-17 00:12 | -23.35458 | -45.35186 | 28846 ft | 463 kts | 76° |
| 2026-04-17 00:12 | -23.34727 | -45.31765 | 29306 ft | 467 kts | 76° |
| 2026-04-17 00:12 | -23.33991 | -45.28308 | 29772 ft | 470 kts | 76° |
| 2026-04-17 00:12 | -23.33246 | -45.24833 | 30195 ft | 474 kts | 76° |
| 2026-04-17 00:13 | -23.32490 | -45.21323 | 30541 ft | 478 kts | 76° |
| 2026-04-17 00:13 | -23.31724 | -45.17778 | 30852 ft | 483 kts | 76° |
| 2026-04-17 00:13 | -23.30954 | -45.14212 | 31196 ft | 487 kts | 76° |
| 2026-04-17 00:13 | -23.30177 | -45.10617 | 31549 ft | 490 kts | 76° |
| 2026-04-17 00:14 | -23.29394 | -45.06998 | 31886 ft | 493 kts | 76° |
| 2026-04-17 00:14 | -23.28606 | -45.03356 | 32276 ft | 495 kts | 76° |
| 2026-04-17 00:14 | -23.27817 | -44.99716 | 32735 ft | 494 kts | 76° |
| 2026-04-17 00:14 | -23.27030 | -44.96076 | 33214 ft | 493 kts | 76° |
| 2026-04-17 00:15 | -23.26240 | -44.92445 | 33619 ft | 495 kts | 76° |
| 2026-04-17 00:15 | -23.25446 | -44.88796 | 33974 ft | 497 kts | 76° |
| 2026-04-17 00:15 | -23.24649 | -44.85137 | 34329 ft | 498 kts | 76° |
| 2026-04-17 00:15 | -23.23848 | -44.81478 | 34739 ft | 497 kts | 76° |
| 2026-04-17 00:16 | -23.23052 | -44.77828 | 35129 ft | 495 kts | 76° |
| 2026-04-17 00:16 | -23.22256 | -44.74180 | 35411 ft | 497 kts | 76° |
| 2026-04-17 00:16 | -23.21457 | -44.70517 | 35657 ft | 499 kts | 76° |
| 2026-04-17 00:16 | -23.20653 | -44.66845 | 35953 ft | 500 kts | 76° |
| 2026-04-17 00:17 | -23.19831 | -44.63179 | 36283 ft | 499 kts | 73° |
| 2026-04-17 00:17 | -23.18696 | -44.59628 | 36637 ft | 496 kts | 65° |
| 2026-04-17 00:17 | -23.17365 | -44.56225 | 36979 ft | 496 kts | 64° |
| 2026-04-17 00:18 | -23.14537 | -44.49318 | 36992 ft | 502 kts | 64° |
| 2026-04-17 00:18 | -23.11718 | -44.42415 | 36975 ft | 495 kts | 64° |
| 2026-04-17 00:19 | -23.08971 | -44.35577 | 37000 ft | 494 kts | 65° |
| 2026-04-17 00:19 | -23.06233 | -44.28721 | 36996 ft | 495 kts | 65° |
| 2026-04-17 00:20 | -23.03488 | -44.21851 | 36994 ft | 496 kts | 65° |
| 2026-04-17 00:20 | -23.00730 | -44.14968 | 37004 ft | 497 kts | 65° |
| 2026-04-17 00:21 | -22.97969 | -44.08085 | 36998 ft | 497 kts | 65° |
| 2026-04-17 00:21 | -22.95204 | -44.01203 | 37001 ft | 498 kts | 65° |
| 2026-04-17 00:22 | -22.91045 | -43.90874 | 36980 ft | 498 kts | 65° |
| 2026-04-17 00:22 | -22.88276 | -43.84008 | 36989 ft | 497 kts | 65° |
| 2026-04-17 00:23 | -22.85506 | -43.77154 | 37003 ft | 496 kts | 65° |
| 2026-04-17 00:23 | -22.82735 | -43.70304 | 36993 ft | 496 kts | 65° |
| 2026-04-17 00:24 | -22.79962 | -43.63461 | 36993 ft | 495 kts | 65° |
| 2026-04-17 00:24 | -22.77190 | -43.56629 | 36967 ft | 495 kts | 65° |
| 2026-04-17 00:25 | -22.74419 | -43.49810 | 36967 ft | 494 kts | 65° |
| 2026-04-17 00:25 | -22.71650 | -43.43004 | 36981 ft | 493 kts | 65° |
| 2026-04-17 00:26 | -22.68879 | -43.36205 | 36976 ft | 493 kts | 65° |
| 2026-04-17 00:26 | -22.66108 | -43.29416 | 36972 ft | 493 kts | 65° |
| 2026-04-17 00:27 | -22.63336 | -43.22632 | 36971 ft | 492 kts | 65° |
| 2026-04-17 00:27 | -22.60564 | -43.15860 | 36983 ft | 492 kts | 65° |
| 2026-04-17 00:28 | -22.57791 | -43.09093 | 37007 ft | 492 kts | 65° |
| 2026-04-17 00:28 | -22.55017 | -43.02341 | 37031 ft | 491 kts | 65° |
| 2026-04-17 00:29 | -22.52240 | -42.95580 | 37001 ft | 492 kts | 65° |
| 2026-04-17 00:29 | -22.49461 | -42.88826 | 37021 ft | 491 kts | 65° |
| 2026-04-17 00:30 | -22.46680 | -42.82081 | 37018 ft | 492 kts | 65° |
| 2026-04-17 00:30 | -22.43911 | -42.75371 | 37025 ft | 492 kts | 65° |
| 2026-04-17 00:31 | -22.41114 | -42.68605 | 37024 ft | 493 kts | 65° |
| 2026-04-17 00:31 | -22.38310 | -42.61830 | 37002 ft | 494 kts | 65° |
| 2026-04-17 00:32 | -22.35499 | -42.55048 | 37016 ft | 494 kts | 65° |
| 2026-04-17 00:32 | -22.32688 | -42.48271 | 37035 ft | 494 kts | 65° |
| 2026-04-17 00:33 | -22.29843 | -42.41511 | 37018 ft | 494 kts | 61° |
| 2026-04-17 00:33 | -22.26038 | -42.35394 | 37032 ft | 490 kts | 50° |
| 2026-04-17 00:34 | -22.21852 | -42.29589 | 37013 ft | 489 kts | 49° |
| 2026-04-17 00:34 | -22.17680 | -42.23783 | 37017 ft | 489 kts | 50° |
| 2026-04-17 00:35 | -22.13551 | -42.17957 | 37016 ft | 489 kts | 50° |
| 2026-04-17 00:35 | -22.09439 | -42.12126 | 37001 ft | 488 kts | 50° |
| 2026-04-17 00:36 | -22.05329 | -42.06299 | 37000 ft | 488 kts | 50° |
| 2026-04-17 00:36 | -22.01214 | -42.00475 | 37010 ft | 488 kts | 50° |
| 2026-04-17 00:37 | -21.97105 | -41.94671 | 37009 ft | 487 kts | 50° |
| 2026-04-17 00:37 | -21.92995 | -41.88871 | 36991 ft | 487 kts | 50° |
| 2026-04-17 00:38 | -21.90940 | -41.85972 | 36725 ft | 489 kts | 50° |
| 2026-04-17 00:38 | -21.88868 | -41.83053 | 36208 ft | 490 kts | 50° |
| 2026-04-17 00:38 | -21.86803 | -41.80145 | 35641 ft | 489 kts | 50° |
| 2026-04-17 00:38 | -21.84742 | -41.77242 | 35157 ft | 486 kts | 50° |
| 2026-04-17 00:39 | -21.82701 | -41.74367 | 34713 ft | 481 kts | 50° |
| 2026-04-17 00:39 | -21.80676 | -41.71516 | 34298 ft | 478 kts | 50° |
| 2026-04-17 00:39 | -21.78660 | -41.68683 | 33859 ft | 475 kts | 50° |
| 2026-04-17 00:39 | -21.76656 | -41.65868 | 33320 ft | 473 kts | 50° |
| 2026-04-17 00:40 | -21.74664 | -41.63071 | 32875 ft | 469 kts | 50° |
| 2026-04-17 00:40 | -21.72693 | -41.60303 | 32428 ft | 464 kts | 50° |
| 2026-04-17 00:40 | -21.70735 | -41.57556 | 32012 ft | 460 kts | 50° |
| 2026-04-17 00:40 | -21.68794 | -41.54834 | 31597 ft | 457 kts | 50° |
| 2026-04-17 00:41 | -21.66871 | -41.52140 | 31175 ft | 453 kts | 50° |
| 2026-04-17 00:41 | -21.64961 | -41.49464 | 30765 ft | 449 kts | 51° |
| 2026-04-17 00:41 | -21.63065 | -41.46810 | 30354 ft | 446 kts | 51° |
| 2026-04-17 00:41 | -21.61207 | -41.44210 | 29937 ft | 443 kts | 51° |
| 2026-04-17 00:42 | -21.59341 | -41.41600 | 29457 ft | 439 kts | 51° |
| 2026-04-17 00:42 | -21.57491 | -41.39012 | 28993 ft | 434 kts | 51° |
| 2026-04-17 00:42 | -21.55639 | -41.36423 | 28546 ft | 429 kts | 51° |
| 2026-04-17 00:42 | -21.53827 | -41.33892 | 28119 ft | 425 kts | 51° |
| 2026-04-17 00:43 | -21.52253 | -41.31694 | 27724 ft | 421 kts | 51° |
| 2026-04-17 00:43 | -21.50474 | -41.29212 | 27290 ft | 418 kts | 51° |
| 2026-04-17 00:43 | -21.48595 | -41.26870 | 26896 ft | 411 kts | 40° |
| 2026-04-17 00:43 | -21.46446 | -41.24907 | 26681 ft | 400 kts | 37° |
| 2026-04-17 00:44 | -21.44280 | -41.23069 | 26428 ft | 395 kts | 36° |
| 2026-04-17 00:44 | -21.42129 | -41.21255 | 26182 ft | 391 kts | 36° |
| 2026-04-17 00:44 | -21.40014 | -41.19444 | 25816 ft | 388 kts | 37° |
| 2026-04-17 00:44 | -21.37921 | -41.17621 | 25416 ft | 386 kts | 37° |
| 2026-04-17 00:45 | -21.35850 | -41.15800 | 25015 ft | 385 kts | 37° |
| 2026-04-17 00:45 | -21.33786 | -41.13979 | 24575 ft | 384 kts | 37° |
| 2026-04-17 00:45 | -21.31723 | -41.12158 | 24136 ft | 384 kts | 37° |
| 2026-04-17 00:45 | -21.29666 | -41.10345 | 23777 ft | 381 kts | 37° |
| 2026-04-17 00:46 | -21.27622 | -41.08546 | 23358 ft | 379 kts | 37° |
| 2026-04-17 00:46 | -21.25590 | -41.06760 | 22892 ft | 377 kts | 37° |
| 2026-04-17 00:46 | -21.23567 | -41.04982 | 22440 ft | 375 kts | 37° |
| 2026-04-17 00:46 | -21.21561 | -41.03219 | 22005 ft | 372 kts | 38° |
| 2026-04-17 00:47 | -21.19564 | -41.01464 | 21575 ft | 370 kts | 38° |
| 2026-04-17 00:47 | -21.17578 | -40.99720 | 21138 ft | 368 kts | 38° |
| 2026-04-17 00:47 | -21.15602 | -40.97984 | 20710 ft | 366 kts | 38° |
| 2026-04-17 00:47 | -21.13641 | -40.96262 | 20285 ft | 364 kts | 38° |
| 2026-04-17 00:48 | -21.11687 | -40.94547 | 19862 ft | 362 kts | 38° |
| 2026-04-17 00:48 | -21.09742 | -40.92841 | 19416 ft | 361 kts | 38° |
| 2026-04-17 00:48 | -21.08457 | -40.91714 | 19133 ft | 360 kts | 38° |
| 2026-04-17 00:48 | -21.05866 | -40.89443 | 18574 ft | 358 kts | 38° |
| 2026-04-17 00:49 | -21.03954 | -40.87767 | 18227 ft | 354 kts | 38° |
| 2026-04-17 00:49 | -21.02696 | -40.86666 | 17920 ft | 352 kts | 38° |
| 2026-04-17 00:49 | -21.00806 | -40.85010 | 17478 ft | 350 kts | 38° |
| 2026-04-17 00:49 | -20.98927 | -40.83365 | 17047 ft | 347 kts | 39° |
| 2026-04-17 00:50 | -20.97064 | -40.81734 | 16616 ft | 345 kts | 39° |
| 2026-04-17 00:50 | -20.95213 | -40.80114 | 16197 ft | 342 kts | 39° |
| 2026-04-17 00:50 | -20.93378 | -40.78509 | 15786 ft | 339 kts | 39° |
| 2026-04-17 00:50 | -20.91559 | -40.76918 | 15379 ft | 337 kts | 39° |
| 2026-04-17 00:51 | -20.89751 | -40.75336 | 14974 ft | 334 kts | 39° |
| 2026-04-17 00:51 | -20.87956 | -40.73766 | 14569 ft | 332 kts | 39° |
| 2026-04-17 00:51 | -20.86169 | -40.72204 | 14142 ft | 331 kts | 39° |
| 2026-04-17 00:51 | -20.84393 | -40.70653 | 13712 ft | 329 kts | 40° |
| 2026-04-17 00:52 | -20.82622 | -40.69106 | 13258 ft | 327 kts | 39° |
| 2026-04-17 00:52 | -20.80877 | -40.67560 | 12828 ft | 324 kts | 43° |
| 2026-04-17 00:52 | -20.79434 | -40.65752 | 12537 ft | 316 kts | 54° |
| 2026-04-17 00:52 | -20.78154 | -40.63846 | 12125 ft | 314 kts | 55° |
| 2026-04-17 00:53 | -20.76911 | -40.61942 | 11732 ft | 311 kts | 56° |
| 2026-04-17 00:53 | -20.75675 | -40.60053 | 11336 ft | 309 kts | 55° |
| 2026-04-17 00:53 | -20.74442 | -40.58185 | 10938 ft | 307 kts | 55° |
| 2026-04-17 00:53 | -20.73208 | -40.56330 | 10537 ft | 306 kts | 55° |
| 2026-04-17 00:54 | -20.71973 | -40.54485 | 10174 ft | 303 kts | 55° |
| 2026-04-17 00:54 | -20.70765 | -40.52687 | 9904 ft | 297 kts | 54° |
| 2026-04-17 00:54 | -20.69587 | -40.50938 | 9624 ft | 289 kts | 54° |
| 2026-04-17 00:54 | -20.68403 | -40.49183 | 9197 ft | 290 kts | 54° |
| 2026-04-17 00:55 | -20.67221 | -40.47433 | 8779 ft | 289 kts | 54° |
| 2026-04-17 00:55 | -20.66050 | -40.45701 | 8419 ft | 287 kts | 54° |
| 2026-04-17 00:55 | -20.64886 | -40.43980 | 8057 ft | 285 kts | 54° |
| 2026-04-17 00:55 | -20.63729 | -40.42269 | 7704 ft | 283 kts | 54° |
| 2026-04-17 00:56 | -20.62576 | -40.40566 | 7322 ft | 282 kts | 54° |
| 2026-04-17 00:56 | -20.61430 | -40.38874 | 6965 ft | 281 kts | 54° |
| 2026-04-17 00:56 | -20.60283 | -40.37180 | 6593 ft | 281 kts | 54° |
| 2026-04-17 00:56 | -20.59154 | -40.35514 | 6219 ft | 281 kts | 54° |
| 2026-04-17 00:57 | -20.58029 | -40.33854 | 6099 ft | 268 kts | 54° |
| 2026-04-17 00:57 | -20.56973 | -40.32296 | 5990 ft | 251 kts | 54° |
| 2026-04-17 00:57 | -20.55981 | -40.30832 | 5866 ft | 236 kts | 54° |
| 2026-04-17 00:57 | -20.55052 | -40.29463 | 5739 ft | 221 kts | 54° |
| 2026-04-17 00:58 | -20.54183 | -40.28183 | 5601 ft | 206 kts | 54° |
| 2026-04-17 00:58 | -20.53354 | -40.26963 | 5267 ft | 202 kts | 55° |
| 2026-04-17 00:58 | -20.52529 | -40.25748 | 4915 ft | 201 kts | 55° |
| 2026-04-17 00:58 | -20.51607 | -40.24636 | 4502 ft | 203 kts | 31° |
| 2026-04-17 00:59 | -20.50280 | -40.24334 | 4230 ft | 190 kts | 352° |
| 2026-04-17 00:59 | -20.49021 | -40.24514 | 4052 ft | 179 kts | 351° |
| 2026-04-17 00:59 | -20.47787 | -40.24700 | 3642 ft | 182 kts | 351° |
| 2026-04-17 00:59 | -20.46554 | -40.24886 | 3422 ft | 176 kts | 351° |
| 2026-04-17 01:00 | -20.45336 | -40.25069 | 3223 ft | 177 kts | 351° |
| 2026-04-17 01:00 | -20.44115 | -40.25251 | 3066 ft | 177 kts | 352° |
| 2026-04-17 01:00 | -20.42888 | -40.25433 | 2885 ft | 178 kts | 352° |
| 2026-04-17 01:00 | -20.41668 | -40.25615 | 2721 ft | 176 kts | 351° |
| 2026-04-17 01:01 | -20.40461 | -40.25795 | 2559 ft | 174 kts | 352° |
| 2026-04-17 01:01 | -20.39288 | -40.25969 | 2415 ft | 165 kts | 351° |
| 2026-04-17 01:01 | -20.38169 | -40.26135 | 2222 ft | 160 kts | 351° |
| 2026-04-17 01:01 | -20.37063 | -40.26298 | 2092 ft | 162 kts | 352° |
| 2026-04-17 01:02 | -20.35940 | -40.26465 | 1956 ft | 163 kts | 352° |
| 2026-04-17 01:02 | -20.34842 | -40.26627 | 1813 ft | 155 kts | 352° |
| 2026-04-17 01:02 | -20.33816 | -40.26779 | 1566 ft | 144 kts | 352° |
| 2026-04-17 01:02 | -20.32854 | -40.26921 | 1379 ft | 138 kts | 351° |
| 2026-04-17 01:03 | -20.31895 | -40.27062 | 1194 ft | 139 kts | 351° |
| 2026-04-17 01:03 | -20.30937 | -40.27204 | 997 ft | 139 kts | 351° |
| 2026-04-17 01:03 | -20.29981 | -40.27346 | 799 ft | 137 kts | 351° |
| 2026-04-17 01:03 | -20.29045 | -40.27484 | 596 ft | 134 kts | 351° |
| 2026-04-17 01:04 | -20.28129 | -40.27620 | 402 ft | 132 kts | 350° |
| 2026-04-17 01:04 | -20.27229 | -40.27755 | 222 ft | 130 kts | 352° |
| 2026-04-17 01:04 | -20.26325 | -40.27885 | 43 ft | 131 kts | 351° |
| 2026-04-17 01:04 | -20.25569 | -40.28000 | 36 ft | 79 kts | 352° |
| 2026-04-17 01:05 | -20.25220 | -40.28051 | 29 ft | 13 kts | 352° |
| 2026-04-17 01:05 | -20.25124 | -40.28064 | 26 ft | 14 kts | 353° |
| 2026-04-17 01:05 | -20.25028 | -40.28079 | 29 ft | 14 kts | 352° |
| 2026-04-17 01:05 | -20.24976 | -40.28121 | 26 ft | 0 kts | 282° |
| 2026-04-17 01:06 | -20.24975 | -40.28122 | 26 ft | 0 kts | 284° |
| 2026-04-17 01:06 | -20.24963 | -40.28131 | 26 ft | 5 kts | 335° |
| 2026-04-17 01:06 | -20.24932 | -40.28099 | 25 ft | 10 kts | 120° |
| 2026-04-17 01:06 | -20.25013 | -40.28082 | 26 ft | 15 kts | 172° |
| 2026-04-17 01:07 | -20.25142 | -40.28063 | 27 ft | 22 kts | 172° |
| 2026-04-17 01:07 | -20.25308 | -40.28038 | 33 ft | 26 kts | 172° |
| 2026-04-17 01:07 | -20.25504 | -40.28008 | 34 ft | 30 kts | 172° |
| 2026-04-17 01:07 | -20.25614 | -40.27993 | 36 ft | 11 kts | 172° |
| 2026-04-17 01:08 | -20.25641 | -40.27989 | 37 ft | 3 kts | 172° |
| 2026-04-17 01:08 | -20.25654 | -40.27987 | 37 ft | 1 kts | 172° |
| 2026-04-17 01:08 | -20.25662 | -40.27986 | 36 ft | 1 kts | 172° |
| 2026-04-17 01:08 | -20.25668 | -40.27984 | 37 ft | 1 kts | 172° |
| 2026-04-17 01:09 | -20.25670 | -40.27984 | 37 ft | 0 kts | 172° |
| 2026-04-17 01:09 | -20.25686 | -40.27982 | 38 ft | 6 kts | 172° |
| 2026-04-17 01:09 | -20.25758 | -40.27971 | 39 ft | 14 kts | 172° |
| 2026-04-17 01:09 | -20.25877 | -40.27956 | 40 ft | 18 kts | 186° |
| 2026-04-17 01:10 | -20.25923 | -40.28059 | 38 ft | 16 kts | 265° |
| 2026-04-17 01:10 | -20.26002 | -40.28115 | 35 ft | 15 kts | 179° |
| 2026-04-17 01:10 | -20.26105 | -40.28102 | 34 ft | 15 kts | 169° |
| 2026-04-17 01:10 | -20.26207 | -40.28083 | 33 ft | 14 kts | 171° |
| 2026-04-17 01:11 | -20.26286 | -40.28071 | 34 ft | 10 kts | 173° |
| 2026-04-17 01:11 | -20.26352 | -40.28063 | 34 ft | 9 kts | 173° |
| 2026-04-17 01:11 | -20.26416 | -40.28054 | 34 ft | 9 kts | 172° |
| 2026-04-17 01:11 | -20.26477 | -40.28046 | 34 ft | 8 kts | 182° |
| 2026-04-17 01:12 | -20.26492 | -40.28095 | 34 ft | 8 kts | 287° |
| 2026-04-17 01:12 | -20.26490 | -40.28128 | 34 ft | 3 kts | 261° |
| 2026-04-17 01:12 | -20.26494 | -40.28155 | 34 ft | 4 kts | 261° |
| 2026-04-17 01:12 | -20.26498 | -40.28183 | 34 ft | 0 kts | 263° |